sensor_id;sensor_type;location;lat;lon;timestamp;temperature;humidity
45735;DHT22;31446;49.632;8.328;2022-11-09T00:10:38;12.70;99.90
45735;DHT22;31446;49.632;8.328;2022-11-09T00:25:45;12.80;99.90
45735;DHT22;31446;49.632;8.328;2022-11-09T00:40:51;12.50;99.90
45735;DHT22;31446;49.632;8.328;2022-11-09T00:55:59;12.70;99.90
45735;DHT22;31446;49.632;8.328;2022-11-09T01:11:07;12.40;99.90
45735;DHT22;31446;49.632;8.328;2022-11-09T01:26:15;12.50;99.90
45735;DHT22;31446;49.632;8.328;2022-11-09T01:41:23;12.40;99.90
45735;DHT22;31446;49.632;8.328;2022-11-09T01:56:30;12.40;99.90
45735;DHT22;31446;49.632;8.328;2022-11-09T02:11:37;12.40;99.90
45735;DHT22;31446;49.632;8.328;2022-11-09T02:26:46;12.50;99.90
45735;DHT22;31446;49.632;8.328;2022-11-09T02:41:56;12.60;99.90
45735;DHT22;31446;49.632;8.328;2022-11-09T02:57:04;12.70;99.90
45735;DHT22;31446;49.632;8.328;2022-11-09T03:12:10;12.70;99.90
45735;DHT22;31446;49.632;8.328;2022-11-09T03:27:29;12.70;99.90
45735;DHT22;31446;49.632;8.328;2022-11-09T03:42:35;12.50;99.90
45735;DHT22;31446;49.632;8.328;2022-11-09T03:57:43;12.40;99.90
45735;DHT22;31446;49.632;8.328;2022-11-09T04:12:49;12.20;99.90
45735;DHT22;31446;49.632;8.328;2022-11-09T04:27:56;12.20;99.90
45735;DHT22;31446;49.632;8.328;2022-11-09T04:43:05;12.10;99.90
45735;DHT22;31446;49.632;8.328;2022-11-09T04:58:12;12.10;99.90
45735;DHT22;31446;49.632;8.328;2022-11-09T05:13:19;12.20;99.90
45735;DHT22;31446;49.632;8.328;2022-11-09T05:28:25;12.30;99.90
45735;DHT22;31446;49.632;8.328;2022-11-09T05:43:32;12.30;99.90
45735;DHT22;31446;49.632;8.328;2022-11-09T05:58:38;12.20;99.90
45735;DHT22;31446;49.632;8.328;2022-11-09T06:13:44;12.20;99.90
45735;DHT22;31446;49.632;8.328;2022-11-09T06:28:51;12.10;99.90
45735;DHT22;31446;49.632;8.328;2022-11-09T06:43:57;12.10;99.90
45735;DHT22;31446;49.632;8.328;2022-11-09T06:59:03;12.10;99.90
45735;DHT22;31446;49.632;8.328;2022-11-09T07:14:12;12.20;99.90
45735;DHT22;31446;49.632;8.328;2022-11-09T07:29:18;12.30;99.90
45735;DHT22;31446;49.632;8.328;2022-11-09T07:44:24;12.40;99.90
45735;DHT22;31446;49.632;8.328;2022-11-09T07:59:30;12.40;99.90
45735;DHT22;31446;49.632;8.328;2022-11-09T08:14:36;12.60;99.90
45735;DHT22;31446;49.632;8.328;2022-11-09T08:29:43;12.60;99.90
45735;DHT22;31446;49.632;8.328;2022-11-09T08:44:49;12.70;99.90
45735;DHT22;31446;49.632;8.328;2022-11-09T08:59:55;12.90;99.90
45735;DHT22;31446;49.632;8.328;2022-11-09T09:15:02;13.40;99.90
45735;DHT22;31446;49.632;8.328;2022-11-09T09:30:10;13.50;99.90
45735;DHT22;31446;49.632;8.328;2022-11-09T09:45:18;13.70;99.90
45735;DHT22;31446;49.632;8.328;2022-11-09T10:00:26;14.20;99.90
45735;DHT22;31446;49.632;8.328;2022-11-09T10:15:35;15.50;99.90
45735;DHT22;31446;49.632;8.328;2022-11-09T10:30:43;16.70;99.90
45735;DHT22;31446;49.632;8.328;2022-11-09T10:45:59;16.30;99.90
45735;DHT22;31446;49.632;8.328;2022-11-09T11:01:12;16.40;99.90
45735;DHT22;31446;49.632;8.328;2022-11-09T11:16:32;16.90;99.90
45735;DHT22;31446;49.632;8.328;2022-11-09T11:31:38;16.80;99.90
45735;DHT22;31446;49.632;8.328;2022-11-09T11:46:46;16.30;99.90
45735;DHT22;31446;49.632;8.328;2022-11-09T12:02:13;16.30;99.90
45735;DHT22;31446;49.632;8.328;2022-11-09T12:17:31;16.20;99.90
45735;DHT22;31446;49.632;8.328;2022-11-09T12:32:48;16.30;99.90
45735;DHT22;31446;49.632;8.328;2022-11-09T12:47:56;16.40;99.90
45735;DHT22;31446;49.632;8.328;2022-11-09T13:03:06;16.50;99.90
45735;DHT22;31446;49.632;8.328;2022-11-09T13:18:46;16.80;99.90
45735;DHT22;31446;49.632;8.328;2022-11-09T13:49:46;16.50;99.90
45735;DHT22;31446;49.632;8.328;2022-11-09T14:04:53;16.20;99.90
45735;DHT22;31446;49.632;8.328;2022-11-09T14:20:05;16.10;99.90
45735;DHT22;31446;49.632;8.328;2022-11-09T14:35:21;15.90;99.90
45735;DHT22;31446;49.632;8.328;2022-11-09T14:50:30;15.70;99.90
45735;DHT22;31446;49.632;8.328;2022-11-09T15:05:38;15.30;99.90
45735;DHT22;31446;49.632;8.328;2022-11-09T15:20:45;15.00;99.90
45735;DHT22;31446;49.632;8.328;2022-11-09T15:35:54;14.90;99.90
45735;DHT22;31446;49.632;8.328;2022-11-09T15:51:00;14.60;99.90
45735;DHT22;31446;49.632;8.328;2022-11-09T16:06:08;14.40;99.90
45735;DHT22;31446;49.632;8.328;2022-11-09T16:21:16;14.20;99.90
45735;DHT22;31446;49.632;8.328;2022-11-09T16:36:23;13.90;99.90
45735;DHT22;31446;49.632;8.328;2022-11-09T16:51:30;13.80;99.90
45735;DHT22;31446;49.632;8.328;2022-11-09T17:06:36;13.70;99.90
45735;DHT22;31446;49.632;8.328;2022-11-09T17:21:42;13.50;99.90
45735;DHT22;31446;49.632;8.328;2022-11-09T17:36:48;13.40;99.90
45735;DHT22;31446;49.632;8.328;2022-11-09T17:51:54;13.30;99.90
45735;DHT22;31446;49.632;8.328;2022-11-09T18:07:01;13.30;99.90
45735;DHT22;31446;49.632;8.328;2022-11-09T18:22:07;13.10;99.90
45735;DHT22;31446;49.632;8.328;2022-11-09T18:37:13;12.90;99.90
45735;DHT22;31446;49.632;8.328;2022-11-09T18:52:19;12.90;99.90
45735;DHT22;31446;49.632;8.328;2022-11-09T19:07:25;12.80;99.90
45735;DHT22;31446;49.632;8.328;2022-11-09T19:22:34;12.80;99.90
45735;DHT22;31446;49.632;8.328;2022-11-09T19:37:40;12.70;99.90
45735;DHT22;31446;49.632;8.328;2022-11-09T19:52:47;12.50;99.90
45735;DHT22;31446;49.632;8.328;2022-11-09T20:07:53;12.50;99.90
45735;DHT22;31446;49.632;8.328;2022-11-09T20:22:59;12.50;99.90
45735;DHT22;31446;49.632;8.328;2022-11-09T20:38:05;12.40;99.90
45735;DHT22;31446;49.632;8.328;2022-11-09T20:53:14;12.20;99.90
45735;DHT22;31446;49.632;8.328;2022-11-09T21:08:20;12.10;99.90
45735;DHT22;31446;49.632;8.328;2022-11-09T21:23:26;11.80;99.90
45735;DHT22;31446;49.632;8.328;2022-11-09T21:38:45;11.60;99.90
45735;DHT22;31446;49.632;8.328;2022-11-09T21:53:51;11.60;99.90
45735;DHT22;31446;49.632;8.328;2022-11-09T22:08:57;11.30;99.90
45735;DHT22;31446;49.632;8.328;2022-11-09T22:24:04;11.10;99.90
45735;DHT22;31446;49.632;8.328;2022-11-09T22:39:13;10.80;99.90
45735;DHT22;31446;49.632;8.328;2022-11-09T22:54:20;10.60;99.90
45735;DHT22;31446;49.632;8.328;2022-11-09T23:09:26;10.50;99.90
45735;DHT22;31446;49.632;8.328;2022-11-09T23:24:32;10.20;99.90
45735;DHT22;31446;49.632;8.328;2022-11-09T23:39:51;10.10;99.90
45735;DHT22;31446;49.632;8.328;2022-11-09T23:54:57;9.70;99.90
